Time,TemperatureF,DewpointF,PressureIn,WindDirection,WindDirectionDegrees,WindSpeedMPH,WindSpeedGustMPH,Humidity,HourlyPrecipIn,Conditions,Clouds,dailyrainin,SoftwareType,DateUTC
2013-01-06 00:07:00,66.6,65.0,30.17,ENE,67,0.0,3.0,94,0.00,,,0.00,weatherlink.com 1.10,2013-01-06 05:07:00,
2013-01-06 00:21:00,66.4,65.0,30.16,ENE,67,1.0,3.0,94,0.00,,,0.00,weatherlink.com 1.10,2013-01-06 05:21:00,
2013-01-06 00:36:00,66.2,65.0,30.16,ENE,67,2.0,3.0,95,0.00,,,0.00,weatherlink.com 1.10,2013-01-06 05:36:00,
2013-01-06 00:51:00,66.1,65.0,30.15,ENE,65,0.0,4.0,95,0.00,,,0.00,weatherlink.com 1.10,2013-01-06 05:51:00,
2013-01-06 01:06:00,66.0,65.0,30.15,ENE,65,1.0,3.0,95,0.00,,,0.00,weatherlink.com 1.10,2013-01-06 06:06:00,
2013-01-06 01:21:00,66.0,65.0,30.14,ENE,78,2.0,5.0,96,0.00,,,0.00,weatherlink.com 1.10,2013-01-06 06:21:00,
2013-01-06 01:36:00,66.0,65.0,30.13,ESE,103,0.0,3.0,96,0.00,,,0.00,weatherlink.com 1.10,2013-01-06 06:36:00,
2013-01-06 01:51:00,66.1,65.0,30.13,East,88,1.0,6.0,96,0.00,,,0.00,weatherlink.com 1.10,2013-01-06 06:51:00,
2013-01-06 02:07:00,66.0,65.0,30.13,ESE,111,2.0,5.0,96,0.00,,,0.00,weatherlink.com 1.10,2013-01-06 07:07:00,
2013-01-06 02:22:00,65.9,65.0,30.13,ESE,110,1.0,2.0,96,0.00,,,0.00,weatherlink.com 1.10,2013-01-06 07:22:00,
2013-01-06 02:37:00,65.8,65.0,30.13,ENE,71,2.0,5.0,96,0.00,,,0.00,weatherlink.com 1.10,2013-01-06 07:37:00,
2013-01-06 02:52:00,65.7,65.0,30.12,East,92,0.0,7.0,97,0.00,,,0.00,weatherlink.com 1.10,2013-01-06 07:52:00,
2013-01-06 03:07:00,65.7,65.0,30.12,East,88,0.0,5.0,96,0.00,,,0.00,weatherlink.com 1.10,2013-01-06 08:07:00,
2013-01-06 03:22:00,65.7,65.0,30.12,ESE,109,0.0,3.0,97,0.00,,,0.00,weatherlink.com 1.10,2013-01-06 08:22:00,
2013-01-06 03:37:00,65.7,65.0,30.11,ENE,75,0.0,5.0,97,0.00,,,0.00,weatherlink.com 1.10,2013-01-06 08:37:00,
2013-01-06 03:52:00,65.6,65.0,30.12,East,84,2.0,3.0,97,0.00,,,0.00,weatherlink.com 1.10,2013-01-06 08:52:00,
2013-01-06 04:07:00,65.6,65.0,30.11,East,80,5.0,7.0,97,0.00,,,0.00,weatherlink.com 1.10,2013-01-06 09:07:00,
2013-01-06 04:22:00,65.5,65.0,30.11,East,86,1.0,4.0,97,0.00,,,0.00,weatherlink.com 1.10,2013-01-06 09:22:00,
2013-01-06 04:37:00,65.4,65.0,30.11,ENE,74,0.0,4.0,97,0.00,,,0.00,weatherlink.com 1.10,2013-01-06 09:37:00,
2013-01-06 04:52:00,65.1,64.0,30.11,East,82,1.0,4.0,97,0.00,,,0.00,weatherlink.com 1.10,2013-01-06 09:52:00,
2013-01-06 05:07:00,64.9,64.0,30.10,ENE,77,2.0,3.0,97,0.00,,,0.00,weatherlink.com 1.10,2013-01-06 10:07:00,
2013-01-06 05:22:00,64.8,64.0,30.11,ENE,77,1.0,3.0,97,0.00,,,0.00,weatherlink.com 1.10,2013-01-06 10:22:00,
2013-01-06 05:37:00,64.8,64.0,30.11,ENE,77,0.0,3.0,97,0.00,,,0.00,weatherlink.com 1.10,2013-01-06 10:37:00,
2013-01-06 05:52:00,64.8,64.0,30.11,ENE,77,0.0,2.0,97,0.00,,,0.00,weatherlink.com 1.10,2013-01-06 10:52:00,
2013-01-06 06:07:00,64.8,64.0,30.11,ENE,77,3.0,4.0,97,0.00,,,0.00,weatherlink.com 1.10,2013-01-06 11:07:00,
2013-01-06 06:22:00,64.8,64.0,30.11,ENE,77,1.0,3.0,97,0.00,,,0.00,weatherlink.com 1.10,2013-01-06 11:22:00,
2013-01-06 06:37:00,64.7,64.0,30.11,ENE,77,2.0,3.0,97,0.00,,,0.00,weatherlink.com 1.10,2013-01-06 11:37:00,
2013-01-06 06:52:00,64.6,64.0,30.11,East,81,1.0,4.0,97,0.00,,,0.00,weatherlink.com 1.10,2013-01-06 11:52:00,
2013-01-06 07:07:00,64.5,64.0,30.11,East,81,2.0,5.0,97,0.00,,,0.00,weatherlink.com 1.10,2013-01-06 12:07:00,
2013-01-06 07:22:00,64.6,64.0,30.12,ENE,75,4.0,7.0,97,0.00,,,0.00,weatherlink.com 1.10,2013-01-06 12:22:00,
2013-01-06 07:37:00,64.5,64.0,30.12,ENE,74,0.0,4.0,97,0.00,,,0.00,weatherlink.com 1.10,2013-01-06 12:37:00,
2013-01-06 07:52:00,64.7,64.0,30.12,East,101,0.0,3.0,98,0.00,,,0.00,weatherlink.com 1.10,2013-01-06 12:52:00,
2013-01-06 08:07:00,64.6,64.0,30.13,East,88,0.0,5.0,98,0.00,,,0.00,weatherlink.com 1.10,2013-01-06 13:07:00,
2013-01-06 08:22:00,64.8,64.0,30.13,East,87,1.0,4.0,98,0.00,,,0.00,weatherlink.com 1.10,2013-01-06 13:22:00,
2013-01-06 08:37:00,65.0,64.0,30.14,ENE,67,5.0,5.0,97,0.00,,,0.00,weatherlink.com 1.10,2013-01-06 13:37:00,
2013-01-06 08:52:00,65.4,65.0,30.14,East,85,1.0,3.0,98,0.00,,,0.00,weatherlink.com 1.10,2013-01-06 13:52:00,
2013-01-06 09:07:00,66.0,66.0,30.14,ESE,105,2.0,4.0,98,0.00,,,0.00,weatherlink.com 1.10,2013-01-06 14:07:00,
2013-01-06 09:22:00,66.4,66.0,30.14,East,96,1.0,3.0,98,0.00,,,0.00,weatherlink.com 1.10,2013-01-06 14:22:00,
2013-01-06 09:37:00,66.9,66.0,30.14,ESE,115,0.0,3.0,98,0.00,,,0.00,weatherlink.com 1.10,2013-01-06 14:37:00,
2013-01-06 09:52:00,67.5,67.0,30.14,East,93,0.0,5.0,98,0.00,,,0.00,weatherlink.com 1.10,2013-01-06 14:52:00,
2013-01-06 10:07:00,68.7,68.0,30.14,East,88,0.0,3.0,98,0.00,,,0.00,weatherlink.com 1.10,2013-01-06 15:07:00,
2013-01-06 10:22:00,69.5,69.0,30.14,East,88,0.0,1.0,98,0.00,,,0.00,weatherlink.com 1.10,2013-01-06 15:22:00,
2013-01-06 10:37:00,70.8,70.0,30.13,ESE,121,0.0,3.0,97,0.00,,,0.00,weatherlink.com 1.10,2013-01-06 15:37:00,
2013-01-06 10:52:00,72.3,70.0,30.13,East,99,1.0,3.0,93,0.00,,,0.00,weatherlink.com 1.10,2013-01-06 15:52:00,
2013-01-06 11:07:00,74.8,71.0,30.12,SE,144,0.0,5.0,87,0.00,,,0.00,weatherlink.com 1.10,2013-01-06 16:07:00,
2013-01-06 11:22:00,77.6,72.0,30.12,SSE,159,0.0,6.0,82,0.00,,,0.00,weatherlink.com 1.10,2013-01-06 16:22:00,
2013-01-06 11:37:00,78.9,72.0,30.11,SE,139,0.0,7.0,79,0.00,,,0.00,weatherlink.com 1.10,2013-01-06 16:37:00,
2013-01-06 11:52:00,79.8,72.0,30.11,SE,136,2.0,4.0,77,0.00,,,0.00,weatherlink.com 1.10,2013-01-06 16:52:00,
2013-01-06 12:08:00,81.4,72.0,30.10,SE,134,0.0,5.0,74,0.00,,,0.00,weatherlink.com 1.10,2013-01-06 17:08:00,
2013-01-06 12:23:00,81.2,72.0,30.09,SE,137,2.0,4.0,73,0.00,,,0.00,weatherlink.com 1.10,2013-01-06 17:23:00,
2013-01-06 12:38:00,81.2,72.0,30.08,SE,138,2.0,5.0,74,0.00,,,0.00,weatherlink.com 1.10,2013-01-06 17:38:00,
2013-01-06 12:53:00,82.3,72.0,30.07,SSE,160,0.0,5.0,70,0.00,,,0.00,weatherlink.com 1.10,2013-01-06 17:53:00,
2013-01-06 13:08:00,82.8,72.0,30.06,SSE,168,0.0,5.0,69,0.00,,,0.00,weatherlink.com 1.10,2013-01-06 18:08:00,
2013-01-06 13:23:00,82.0,70.0,30.05,SSW,199,2.0,5.0,68,0.00,,,0.00,weatherlink.com 1.10,2013-01-06 18:23:00,
2013-01-06 13:38:00,82.3,72.0,30.05,West,277,6.0,8.0,70,0.00,,,0.00,weatherlink.com 1.10,2013-01-06 18:38:00,
2013-01-06 13:53:00,81.2,71.0,30.04,SW,228,6.0,10.0,72,0.00,,,0.00,weatherlink.com 1.10,2013-01-06 18:53:00,
2013-01-06 14:08:00,80.4,71.0,30.04,SW,217,6.0,9.0,74,0.00,,,0.00,weatherlink.com 1.10,2013-01-06 19:08:00,
2013-01-06 14:23:00,80.8,71.0,30.04,SSW,207,5.0,10.0,71,0.00,,,0.00,weatherlink.com 1.10,2013-01-06 19:23:00,
2013-01-06 14:38:00,81.0,70.0,30.04,SSW,209,8.0,10.0,69,0.00,,,0.00,weatherlink.com 1.10,2013-01-06 19:38:00,
2013-01-06 14:53:00,80.9,70.0,30.03,SW,229,7.0,10.0,69,0.00,,,0.00,weatherlink.com 1.10,2013-01-06 19:53:00,
2013-01-06 15:08:00,79.8,70.0,30.03,WSW,252,3.0,11.0,71,0.00,,,0.00,weatherlink.com 1.10,2013-01-06 20:08:00,
2013-01-06 15:23:00,80.4,70.0,30.03,SSW,200,6.0,10.0,70,0.00,,,0.00,weatherlink.com 1.10,2013-01-06 20:23:00,
2013-01-06 15:38:00,80.3,70.0,30.03,SSW,197,5.0,8.0,71,0.00,,,0.00,weatherlink.com 1.10,2013-01-06 20:38:00,
2013-01-06 16:08:00,79.3,70.0,30.03,WSW,238,4.0,10.0,72,0.00,,,0.00,weatherlink.com 1.10,2013-01-06 21:08:00,
2013-01-06 16:23:00,79.0,70.0,30.03,WSW,237,8.0,11.0,73,0.00,,,0.00,weatherlink.com 1.10,2013-01-06 21:23:00,
2013-01-06 16:38:00,78.2,70.0,30.04,SW,231,4.0,10.0,75,0.00,,,0.00,weatherlink.com 1.10,2013-01-06 21:38:00,
2013-01-06 16:53:00,77.4,70.0,30.04,WSW,240,3.0,8.0,78,0.00,,,0.00,weatherlink.com 1.10,2013-01-06 21:53:00,
2013-01-06 17:08:00,76.6,69.0,30.05,SSW,192,1.0,9.0,78,0.00,,,0.00,weatherlink.com 1.10,2013-01-06 22:08:00,
2013-01-06 17:23:00,76.0,69.0,30.05,SW,231,0.0,6.0,80,0.00,,,0.00,weatherlink.com 1.10,2013-01-06 22:23:00,
2013-01-06 17:38:00,75.4,70.0,30.05,SW,225,2.0,6.0,82,0.00,,,0.00,weatherlink.com 1.10,2013-01-06 22:38:00,
2013-01-06 17:53:00,74.9,69.0,30.06,WSW,254,2.0,5.0,83,0.00,,,0.00,weatherlink.com 1.10,2013-01-06 22:53:00,
2013-01-06 18:08:00,74.6,70.0,30.06,West,268,2.0,5.0,85,0.00,,,0.00,weatherlink.com 1.10,2013-01-06 23:08:00,
2013-01-06 18:23:00,74.4,70.0,30.06,West,264,2.0,3.0,85,0.00,,,0.00,weatherlink.com 1.10,2013-01-06 23:23:00,
2013-01-06 18:38:00,74.1,70.0,30.06,West,264,0.0,2.0,86,0.00,,,0.00,weatherlink.com 1.10,2013-01-06 23:38:00,
2013-01-06 18:53:00,74.0,70.0,30.06,West,264,1.0,2.0,86,0.00,,,0.00,weatherlink.com 1.10,2013-01-06 23:53:00,
2013-01-06 19:08:00,73.6,70.0,30.06,West,264,0.0,0.0,87,0.00,,,0.00,weatherlink.com 1.10,2013-01-07 00:08:00,
2013-01-06 19:23:00,73.0,69.0,30.07,West,264,0.0,0.0,88,0.00,,,0.00,weatherlink.com 1.10,2013-01-07 00:23:00,
2013-01-06 19:38:00,72.3,69.0,30.07,West,264,0.0,0.0,89,0.00,,,0.00,weatherlink.com 1.10,2013-01-07 00:38:00,
2013-01-06 19:53:00,71.4,69.0,30.07,West,264,0.0,2.0,91,0.00,,,0.00,weatherlink.com 1.10,2013-01-07 00:53:00,
2013-01-06 20:08:00,71.0,69.0,30.08,West,264,0.0,2.0,92,0.00,,,0.00,weatherlink.com 1.10,2013-01-07 01:08:00,
2013-01-06 20:23:00,70.9,69.0,30.08,West,264,0.0,0.0,93,0.00,,,0.00,weatherlink.com 1.10,2013-01-07 01:23:00,
2013-01-06 20:38:00,70.6,69.0,30.08,West,264,0.0,0.0,93,0.00,,,0.00,weatherlink.com 1.10,2013-01-07 01:38:00,
2013-01-06 20:53:00,70.4,68.0,30.09,West,264,0.0,0.0,93,0.00,,,0.00,weatherlink.com 1.10,2013-01-07 01:53:00,
2013-01-06 21:08:00,70.1,68.0,30.09,West,264,0.0,2.0,94,0.00,,,0.00,weatherlink.com 1.10,2013-01-07 02:08:00,
2013-01-06 21:23:00,69.7,68.0,30.09,West,264,0.0,0.0,94,0.00,,,0.00,weatherlink.com 1.10,2013-01-07 02:23:00,
2013-01-06 21:38:00,69.5,68.0,30.09,West,264,0.0,0.0,94,0.00,,,0.00,weatherlink.com 1.10,2013-01-07 02:38:00,
2013-01-06 21:53:00,69.3,68.0,30.09,West,264,0.0,1.0,95,0.00,,,0.00,weatherlink.com 1.10,2013-01-07 02:53:00,
2013-01-06 22:08:00,69.2,68.0,30.10,West,264,0.0,0.0,95,0.00,,,0.00,weatherlink.com 1.10,2013-01-07 03:08:00,
2013-01-06 22:23:00,69.4,68.0,30.10,West,281,2.0,4.0,96,0.00,,,0.00,weatherlink.com 1.10,2013-01-07 03:23:00,
2013-01-06 22:38:00,70.0,69.0,30.10,West,281,2.0,3.0,96,0.00,,,0.00,weatherlink.com 1.10,2013-01-07 03:38:00,
2013-01-06 22:53:00,70.6,69.0,30.10,West,272,5.0,6.0,95,0.00,,,0.00,weatherlink.com 1.10,2013-01-07 03:53:00,
2013-01-06 23:08:00,70.6,69.0,30.09,NNW,328,4.0,5.0,94,0.00,,,0.00,weatherlink.com 1.10,2013-01-07 04:08:00,
2013-01-06 23:23:00,70.5,69.0,30.09,NNE,28,4.0,4.0,94,0.00,,,0.00,weatherlink.com 1.10,2013-01-07 04:23:00,
2013-01-06 23:38:00,70.4,69.0,30.09,North,355,0.0,3.0,94,0.00,,,0.00,weatherlink.com 1.10,2013-01-07 04:38:00,
2013-01-06 23:53:00,70.3,69.0,30.10,NNW,346,0.0,3.0,94,0.00,,,0.00,weatherlink.com 1.10,2013-01-07 04:53:00,